ADDS METAR Data

Data at: 2045 UTC 15 Aug 2018

METAR for:KSAN (San Diego Intl Arpt, CA, US)
Text:KSAN 151951Z 26009KT 10SM BKN021 26/18 A2993 RMK AO2 SLP136 T02560183
Temperature: 25.6°C ( 78°F)
Dewpoint: 18.3°C ( 65°F) [RH = 64%]
Pressure (altimeter):29.93 inches Hg (1013.6 mb) [Sea level pressure: 1013.6 mb]
Winds:from the W (260 degrees) at 10 MPH (9 knots; 4.6 m/s)
Visibility:10 or more sm (16+ km)
Ceiling:2100 feet AGL
Clouds: broken clouds at 2100 feet AGL